Latest Weather Observations for Moss Vale

IDN60801

Issued at 8:35 pm EST Wednesday 27 August 2014 (issued every 30 minutes, with the page automatically refreshed every 10 minutes)

About weather observations | Map of weather stations | Latest weather observations for NSW | Other Formats
Station Details ID: 068239 Name: MOSS VALE AWS Lat: -34.53 Lon: 150.42 Height: 678.4 m
Data from the previous 72 hours. | See also: Recent months at Moss Vale
Date/Time
EST
Temp
°C
App
Temp
°C
Dew
Point
Rel
Hum
%
Delta-T
°C
Wind Press
QNH
hPa
Press
MSL
hPa
Rain
since 9 am
mm
Dir
 
Spd
km/h
Gust
km/h
Spd
kts
Gust
kts
27/08:30pm 7.8 3.5 5.4 85 1.1 S 17 24 9 13 1027.2 - 0.2
27/08:00pm 7.4 3.8 5.0 85 1.1 S 13 19 7 10 1027.4 1027.9 0.2
27/07:30pm 7.3 2.8 4.3 81 1.4 S 17 20 9 11 1027.4 - 0.2
27/07:10pm 7.6 3.2 4.6 81 1.4 S 17 26 9 14 1027.2 - 0.2
27/07:00pm 7.5 2.7 4.6 82 1.3 S 19 26 10 14 1027.1 1027.7 0.2
27/06:53pm 7.8 3.4 4.9 82 1.3 S 17 22 9 12 1027.0 - 0.2
27/06:30pm 7.7 2.7 4.7 81 1.4 SSE 20 26 11 14 1026.9 - 0.2
27/06:00pm 8.0 2.7 4.8 80 1.5 SSE 22 30 12 16 1026.8 1027.4 0.2
27/05:30pm 7.9 3.2 5.2 83 1.3 S 19 26 10 14 1026.6 - 0.2
27/05:15pm 7.7 2.8 5.0 83 1.2 S 20 24 11 13 1026.5 - 0.2
27/05:00pm 7.8 2.5 5.1 83 1.2 S 22 30 12 16 1026.5 1027.1 0.2
27/04:49pm 8.2 2.2 5.5 83 1.3 SSE 26 37 14 20 1026.6 - 0.2
27/04:41pm 8.2 2.6 5.5 83 1.3 SSE 24 33 13 18 1026.4 - 0.2
27/04:39pm 8.3 3.1 5.6 83 1.3 SSE 22 32 12 17 1026.4 - 0.2
27/04:30pm 8.6 2.3 5.7 82 1.4 SSE 28 37 15 20 1026.3 - 0.2
27/04:29pm 8.5 2.2 5.6 82 1.4 SSE 28 37 15 20 1026.3 - 0.2
27/04:22pm 8.8 2.8 5.5 80 1.6 SSE 26 37 14 20 1026.1 - 0.2
27/04:09pm 8.9 2.6 5.6 80 1.6 SSE 28 33 15 18 1026.1 - 0.2
27/04:00pm 9.3 3.5 6.2 81 1.5 SSE 26 33 14 18 1026.0 1026.5 0.2
27/03:52pm 9.2 3.7 5.8 79 1.6 SSE 24 33 13 18 1026.0 - 0.2
27/03:30pm 9.6 4.1 5.8 77 1.8 SSE 24 35 13 19 1025.8 - 0.2
27/03:00pm 10.6 4.3 5.6 71 2.4 SSE 28 41 15 22 1025.5 1026.1 0.2
27/02:30pm 10.2 3.0 4.8 69 2.5 SSE 32 41 17 22 1025.4 - 0.2
27/02:00pm 10.7 4.8 5.9 72 2.3 SSE 26 35 14 19 1025.5 1026.1 0.2
27/01:30pm 9.9 3.0 4.5 69 2.5 SSE 30 43 16 23 1025.8 - 0.2
27/01:00pm 10.6 5.0 5.6 71 2.4 SSE 24 33 13 18 1025.6 1026.2 0.2
27/12:30pm 10.5 6.0 6.3 75 2.0 SE 19 26 10 14 1026.1 - 0.2
27/12:00pm 10.9 5.5 6.5 74 2.1 SSE 24 33 13 18 1026.3 1026.8 0.2
27/11:30am 11.0 5.2 6.4 73 2.2 SSE 26 37 14 20 1026.7 - 0.2
27/11:00am 10.8 4.7 6.6 75 2.0 SSE 28 35 15 19 1026.9 1027.5 0.2
27/10:44am 10.3 6.0 6.8 79 1.7 SE 19 30 10 16 1027.2 - 0.2
27/10:30am 9.2 3.6 5.6 78 1.7 SE 24 32 13 17 1027.5 - 0.0
27/10:23am 9.4 3.8 5.4 76 1.9 SSE 24 33 13 18 1027.5 - 0.0
27/10:05am 9.7 4.0 4.9 72 2.2 SSE 24 32 13 17 1027.5 - 0.0
27/10:00am 9.9 3.9 5.5 74 2.1 SE 26 35 14 19 1027.5 1028.0 0.0
27/09:50am 9.5 3.7 4.5 71 2.3 SSE 24 35 13 19 1027.4 - 0.0
27/09:30am 9.0 3.6 4.4 73 2.1 SSE 22 28 12 15 1027.4 - 0.0
27/09:00am 8.8 2.1 3.4 69 2.4 SSE 28 39 15 21 1027.1 1027.7 23.2
27/08:30am 8.6 2.4 4.2 74 2.0 SSE 26 37 14 20 1026.8 - 23.2
27/08:00am 8.6 2.5 4.8 77 1.7 SSE 26 39 14 21 1026.6 1027.2 23.2
27/07:30am 8.0 1.9 4.8 80 1.5 SSE 26 35 14 19 1026.4 - 23.2
27/07:21am 7.7 2.0 4.7 81 1.4 SSE 24 32 13 17 1026.4 - 23.2
27/07:00am 7.6 1.5 4.7 82 1.3 SSE 26 37 14 20 1026.2 1026.7 23.2
27/06:30am 7.6 1.9 5.1 84 1.2 SSE 24 35 13 19 1025.9 - 23.2
27/06:24am 7.5 2.6 5.0 84 1.2 SSE 20 32 11 17 1025.9 - 23.2
27/06:02am 7.8 2.8 4.7 81 1.4 SSE 20 26 11 14 1026.0 - 23.0
27/06:00am 7.8 2.8 4.7 81 1.4 SSE 20 30 11 16 1025.9 1026.4 23.0
27/05:30am 7.8 1.7 4.6 80 1.5 SSE 26 37 14 20 1025.5 - 23.0
27/05:17am 7.9 1.0 4.5 79 1.6 SSE 30 39 16 21 1025.4 - 23.0
27/05:07am 7.9 1.4 4.7 80 1.5 SSE 28 43 15 23 1025.5 - 23.0
27/05:00am 8.0 1.9 4.8 80 1.5 SSE 26 35 14 19 1025.4 1026.0 23.0
27/04:30am 8.2 1.8 5.0 80 1.5 SSE 28 37 15 20 1025.2 - 23.0
27/04:00am 8.2 1.8 5.0 80 1.5 SSE 28 37 15 20 1025.1 1025.7 23.0
27/03:30am 8.2 2.6 5.3 82 1.4 SSE 24 35 13 19 1025.1 - 23.0
27/03:12am 8.3 2.3 5.4 82 1.4 SSE 26 35 14 19 1025.3 - 23.0
27/03:00am 8.4 3.2 5.5 82 1.4 SE 22 32 12 17 1025.3 1025.9 23.0
27/02:58am 8.4 3.2 5.5 82 1.4 SE 22 32 12 17 1025.3 - 23.0
27/02:30am 8.4 3.5 5.2 80 1.5 SE 20 28 11 15 1025.6 - 23.0
27/02:00am 8.6 3.8 5.4 80 1.5 SE 20 32 11 17 1025.6 1026.2 23.0
27/01:30am 8.5 3.7 5.4 81 1.5 SE 20 28 11 15 1025.8 - 23.0
27/01:00am 8.8 4.0 5.5 80 1.5 SE 20 32 11 17 1026.1 1026.6 23.0
27/12:30am 8.7 3.9 5.4 80 1.5 SE 20 26 11 14 1026.1 - 23.0
27/12:00am 8.8 3.7 6.1 83 1.3 SE 22 30 12 16 1026.2 1026.7 23.0
 
Date/Time
EST
Temp
°C
App
Temp
°C
Dew
Point
Rel
Hum
%
Delta-T
°C
Wind Press
QNH
hPa
Press
MSL
hPa
Rain
since 9 am
mm
Dir
 
Spd
km/h
Gust
km/h
Spd
kts
Gust
kts
26/11:30pm 9.1 4.0 6.2 82 1.4 ESE 22 35 12 19 1026.1 - 23.0
26/11:03pm 9.1 3.3 6.2 82 1.4 SE 26 35 14 19 1026.2 - 23.0
26/11:00pm 9.2 3.8 6.3 82 1.4 SE 24 35 13 19 1026.3 1026.8 23.0
26/10:30pm 9.2 3.8 6.5 83 1.3 SE 24 30 13 16 1026.2 - 23.0
26/10:21pm 9.3 3.9 6.4 82 1.4 SE 24 33 13 18 1026.2 - 23.0
26/10:08pm 9.2 4.6 6.6 84 1.3 SE 20 30 11 16 1026.2 - 23.0
26/10:00pm 9.2 4.8 6.6 84 1.3 SE 19 26 10 14 1026.2 1026.7 23.0
26/09:54pm 9.2 4.9 6.8 85 1.2 SE 19 24 10 13 1026.2 - 23.0
26/09:30pm 9.2 4.2 6.3 82 1.4 SE 22 33 12 18 1026.3 - 23.0
26/09:25pm 9.2 4.2 6.5 83 1.3 SE 22 33 12 18 1026.4 - 23.0
26/09:12pm 9.2 4.8 6.5 83 1.3 SE 19 24 10 13 1026.3 - 23.0
26/09:00pm 9.3 4.3 6.6 83 1.3 SE 22 32 12 17 1026.2 1026.7 23.0
26/08:30pm 9.5 4.6 6.9 84 1.3 SE 22 33 12 18 1026.1 - 23.0
26/08:00pm 9.6 4.8 7.2 85 1.2 SE 22 32 12 17 1026.1 1026.6 23.0
26/07:30pm 9.5 5.1 7.4 87 1.0 ESE 20 28 11 15 1025.9 - 23.0
26/07:05pm 9.5 5.1 7.4 87 1.0 ESE 20 26 11 14 1025.4 - 22.4
26/07:00pm 9.5 5.1 7.4 87 1.0 ESE 20 32 11 17 1025.4 1026.0 22.4
26/06:41pm 9.4 5.1 7.7 89 0.8 ESE 20 26 11 14 1025.3 - 22.4
26/06:30pm 9.1 6.0 7.4 89 0.8 ESE 13 19 7 10 1025.2 - 22.4
26/06:00pm 9.0 5.5 7.0 87 1.0 ESE 15 19 8 10 1025.1 1025.7 22.0
26/05:54pm 9.1 5.6 7.1 87 1.0 ESE 15 20 8 11 1025.1 - 21.4
26/05:47pm 9.2 5.7 7.2 87 1.0 SE 15 20 8 11 1025.0 - 21.2
26/05:37pm 9.3 5.1 7.3 87 1.0 SE 19 26 10 14 1024.9 - 21.2
26/05:30pm 9.2 5.3 7.3 88 0.9 ESE 17 26 9 14 1024.8 - 21.2
26/05:23pm 9.2 5.8 7.5 89 0.8 SE 15 20 8 11 1024.8 - 21.2
26/05:17pm 9.3 6.3 7.6 89 0.8 SE 13 20 7 11 1024.8 - 21.2
26/05:10pm 9.2 6.2 7.5 89 0.8 SE 13 19 7 10 1024.7 - 21.0
26/05:00pm 9.0 5.5 7.3 89 0.8 SE 15 20 8 11 1024.7 1025.2 21.0
26/04:30pm 9.3 5.8 7.4 88 0.9 SE 15 20 8 11 1024.6 - 19.2
26/04:29pm 9.4 6.4 7.5 88 0.9 SE 13 17 7 9 1024.6 - 19.2
26/04:27pm 9.4 6.4 7.5 88 0.9 SE 13 17 7 9 1024.6 - 19.0
26/04:12pm 9.6 5.8 7.5 87 1.0 SE 17 22 9 12 1024.5 - 18.4
26/04:00pm 9.6 5.8 7.5 87 1.0 SSE 17 26 9 14 1024.5 1025.0 17.6
26/03:46pm 9.8 6.8 7.7 87 1.0 SE 13 19 7 10 1024.4 - 17.0
26/03:42pm 9.8 6.8 7.7 87 1.0 SE 13 19 7 10 1024.4 - 17.0
26/03:30pm 9.7 6.3 7.8 88 0.9 SSE 15 19 8 10 1024.3 - 17.0
26/03:00pm 9.8 6.1 7.9 88 0.9 SSE 17 20 9 11 1024.2 1024.7 17.0
26/02:30pm 9.6 5.4 7.5 87 1.0 SE 19 24 10 13 1024.3 - 16.8
26/02:01pm 9.4 6.4 7.5 88 0.9 ESE 13 17 7 9 1024.4 - 16.8
26/02:00pm 9.5 6.5 7.6 88 0.9 ESE 13 17 7 9 1024.4 1024.9 16.8
26/01:46pm 9.3 6.2 7.4 88 0.9 E 13 20 7 11 1024.5 - 16.4
26/01:30pm 9.2 6.9 7.5 89 0.8 ESE 9 13 5 7 1024.7 - 15.6
26/01:27pm 9.3 6.7 7.6 89 0.8 ESE 11 13 6 7 1024.7 - 15.2
26/01:00pm 9.0 6.2 7.1 88 0.9 SE 11 17 6 9 1024.5 1025.0 12.4
26/12:53pm 9.2 6.5 7.3 88 0.9 SE 11 15 6 8 1024.5 - 11.6
26/12:30pm 9.1 6.4 7.2 88 0.9 SSE 11 15 6 8 1024.5 - 11.2
26/12:24pm 8.8 6.0 6.9 88 0.9 SSE 11 13 6 7 1024.6 - 11.0
26/12:00pm 8.8 6.4 6.9 88 0.9 SE 9 13 5 7 1024.9 1025.4 9.8
26/11:32am 9.0 7.0 7.1 88 0.9 E 7 9 4 5 1025.0 - 8.0
26/11:30am 9.0 7.2 7.1 88 0.9 E 6 7 3 4 1025.0 - 7.8
26/11:26am 9.1 7.3 7.2 88 0.9 E 6 9 3 5 1025.1 - 7.6
26/11:00am 9.1 6.4 7.2 88 0.9 E 11 15 6 8 1025.3 1025.9 6.4
26/10:30am 9.1 4.6 7.1 87 1.0 E 20 28 11 15 1025.3 - 4.8
26/10:00am 9.1 5.6 7.4 89 0.8 E 15 20 8 11 1025.1 1025.7 2.2
26/09:30am 9.0 5.5 7.3 89 0.8 E 15 22 8 12 1024.9 - 0.8
26/09:00am 8.9 5.4 7.2 89 0.8 E 15 20 8 11 1024.7 1025.2 48.8
26/08:55am 8.9 5.0 7.2 89 0.8 E 17 22 9 12 1024.6 - 48.6
26/08:30am 8.9 5.0 7.2 89 0.8 ESE 17 22 9 12 1024.6 - 45.8
26/08:17am 9.0 5.5 7.3 89 0.8 ESE 15 20 8 11 1024.4 - 44.8
26/08:13am 9.0 5.5 7.3 89 0.8 ESE 15 19 8 10 1024.3 - 44.8
26/08:00am 9.1 5.3 7.4 89 0.8 E 17 24 9 13 1023.9 1024.5 43.8
26/07:30am 9.2 6.2 7.6 90 0.8 ENE 13 19 7 10 1023.6 - 41.4
26/07:00am 9.0 4.6 7.3 89 0.8 SE 20 26 11 14 1023.1 1023.6 38.2
26/06:30am 8.9 4.6 7.2 89 0.8 SSE 19 26 10 14 1022.8 - 36.2
26/06:00am 8.9 5.4 7.4 90 0.7 S 15 20 8 11 1022.4 1022.9 35.4
26/05:55am 8.9 5.4 7.4 90 0.7 S 15 20 8 11 1022.3 - 35.0
26/05:43am 8.8 4.5 7.1 89 0.8 SSE 19 28 10 15 1022.2 - 33.0
26/05:30am 8.8 4.6 7.3 90 0.7 SSE 19 32 10 17 1022.1 - 32.4
26/05:00am 8.6 6.6 7.1 90 0.7 SE 7 9 4 5 1022.3 1022.8 30.0
26/04:51am 8.6 6.6 7.1 90 0.7 SSE 7 11 4 6 1022.3 - 28.8
26/04:33am 8.6 5.4 6.9 89 0.8 SE 13 19 7 10 1022.3 - 27.6
26/04:30am 8.6 5.4 6.9 89 0.8 SE 13 19 7 10 1022.3 - 27.6
26/04:05am 8.6 5.5 7.1 90 0.7 SSE 13 17 7 9 1022.4 - 26.8
26/04:00am 8.6 5.5 7.1 90 0.7 SE 13 19 7 10 1022.4 1022.9 26.8
26/03:30am 8.4 5.6 6.9 90 0.7 SW 11 17 6 9 1022.6 - 25.0
26/03:00am 8.3 4.7 6.8 90 0.7 SW 15 20 8 11 1022.7 1023.2 21.8
26/02:46am 8.3 5.5 6.8 90 0.7 SW 11 15 6 8 1022.7 - 20.6
26/02:30am 8.4 5.6 6.9 90 0.7 SW 11 17 6 9 1022.9 - 17.0
26/02:00am 8.3 5.5 6.8 90 0.7 SW 11 13 6 7 1023.1 1023.6 13.0
26/01:46am 8.4 5.2 6.9 90 0.7 S 13 15 7 8 1023.2 - 11.6
26/01:30am 8.5 5.0 7.0 90 0.7 S 15 19 8 10 1023.3 - 9.6
26/01:27am 8.6 5.5 7.1 90 0.7 SSW 13 17 7 9 1023.3 - 8.8
26/01:19am 8.6 5.5 7.1 90 0.7 SW 13 17 7 9 1023.3 - 8.6
26/01:00am 8.5 7.0 7.0 90 0.7 WSW 4 9 2 5 1023.4 1023.9 8.2
26/12:47am 8.6 7.2 7.1 90 0.7 SSW 4 9 2 5 1023.7 - 6.6
26/12:44am 8.6 6.8 7.1 90 0.7 SSW 6 11 3 6 1023.7 - 6.2
26/12:30am 8.6 5.8 7.1 90 0.7 SSW 11 17 6 9 1023.5 - 6.0
26/12:21am 8.5 5.4 7.1 91 0.7 S 13 15 7 8 1023.4 - 5.8
26/12:00am 8.3 5.5 7.1 92 0.6 S 11 15 6 8 1023.4 1023.9 5.4
 
Date/Time
EST
Temp
°C
App
Temp
°C
Dew
Point
Rel
Hum
%
Delta-T
°C
Wind Press
QNH
hPa
Press
MSL
hPa
Rain
since 9 am
mm
Dir
 
Spd
km/h
Gust
km/h
Spd
kts
Gust
kts
25/11:30pm 7.3 4.7 6.1 92 0.6 SSE 9 11 5 6 1023.5 - 4.6
25/11:07pm 6.6 4.4 5.4 92 0.6 SSE 6 11 3 6 1023.8 - 3.0
25/11:00pm 7.4 4.8 6.2 92 0.6 SSE 9 11 5 6 1023.8 1024.4 3.0
25/10:30pm 7.0 4.3 5.8 92 0.6 S 9 11 5 6 1023.8 - 3.0
25/10:00pm 6.6 5.5 5.2 91 0.6 CALM 0 0 0 0 1024.2 1024.7 3.0
25/09:30pm 6.2 5.0 4.7 90 0.7 CALM 0 0 0 0 1024.4 - 3.0
25/09:00pm 7.6 5.4 6.2 91 0.7 SSE 7 11 4 6 1024.3 1024.8 3.0
25/08:30pm 7.3 5.1 6.4 94 0.4 SSW 7 9 4 5 1024.4 - 3.0
25/08:21pm 7.7 5.6 6.8 94 0.4 SW 7 9 4 5 1024.4 - 3.0
25/08:18pm 7.8 5.8 6.9 94 0.4 SW 7 9 4 5 1024.5 - 3.0
25/08:00pm 7.8 5.8 6.9 94 0.4 SW 7 9 4 5 1024.6 1025.1 3.0
25/07:59pm 7.8 5.8 6.9 94 0.4 SW 7 9 4 5 1024.6 - 3.0
25/07:30pm 8.3 6.5 7.1 92 0.6 WSW 6 6 3 3 1024.5 - 3.0
25/07:00pm 8.6 6.6 7.2 91 0.7 W 7 9 4 5 1024.3 1024.8 3.0
25/06:50pm 8.6 6.8 7.1 90 0.7 WSW 6 7 3 4 1024.3 - 2.8
25/06:34pm 8.7 6.8 6.8 88 0.9 S 6 7 3 4 1024.3 - 2.6
25/06:30pm 8.8 6.9 6.8 87 1.0 S 6 7 3 4 1024.3 - 2.4
25/06:00pm 8.9 6.4 6.7 86 1.1 SSE 9 13 5 7 1023.8 1024.4 2.4
25/05:30pm 9.2 6.7 6.6 84 1.3 ENE 9 11 5 6 1023.2 - 2.4
25/05:00pm 9.7 6.4 6.4 80 1.6 ESE 13 17 7 9 1023.1 1023.6 2.4
25/04:30pm 9.6 5.5 6.3 80 1.6 SE 17 22 9 12 1023.0 - 2.4
25/04:12pm 9.1 5.2 6.9 86 1.1 ESE 17 20 9 11 1023.3 - 2.4
25/04:00pm 9.0 6.6 6.8 86 1.1 E 9 19 5 10 1023.4 1023.9 2.2
25/03:37pm 10.0 4.3 5.0 71 2.3 NE 24 35 13 19 1023.2 - 0.4
25/03:30pm 10.6 7.1 5.6 71 2.4 N 13 19 7 10 1023.0 - 0.0
25/03:00pm 11.6 7.8 5.7 67 2.8 NNE 15 20 8 11 1022.8 1023.3 0.0
25/02:30pm 11.4 7.3 6.1 70 2.6 ESE 17 22 9 12 1022.6 - 0.0
25/02:00pm 11.7 6.8 7.0 73 2.3 E 22 32 12 17 1023.0 1023.5 0.0
25/01:30pm 12.1 6.2 7.6 74 2.3 ESE 28 33 15 18 1023.1 - 0.0
25/01:00pm 13.1 8.8 9.2 77 2.0 ESE 22 28 12 15 1023.4 1023.9 0.0
25/12:30pm 14.0 11.8 8.0 67 3.1 ESE 9 17 5 9 1023.8 - 0.0
25/12:00pm 13.9 12.4 4.8 54 4.4 NNE 2 9 1 5 1024.4 1024.9 0.0
25/11:30am 15.0 13.7 6.0 55 4.5 N 2 7 1 4 1024.6 - 0.0
25/11:00am 14.4 12.4 6.3 58 4.0 NNE 6 9 3 5 1025.0 1025.5 0.0
25/10:30am 13.1 10.6 5.0 58 3.9 W 7 11 4 6 1025.4 - 0.0
25/10:00am 12.1 9.4 5.5 64 3.2 W 9 13 5 7 1025.8 1026.3 0.0
25/09:30am 10.2 8.4 7.3 82 1.4 W 6 9 3 5 1025.9 - 0.0
25/09:01am 9.5 8.4 8.3 92 0.6 W 4 7 2 4 1025.9 - 0.0
25/09:00am 9.4 8.2 8.2 92 0.6 W 4 7 2 4 1025.9 1026.4 0.2
25/08:36am 7.5 5.0 6.4 93 0.5 WSW 9 15 5 8 1025.9 - 0.2
25/08:31am 7.2 5.0 6.1 93 0.5 WSW 7 15 4 8 1025.9 - 0.2
25/08:30am 7.3 5.1 6.2 93 0.5 WSW 7 15 4 8 1025.9 - 0.2
25/08:00am 5.1 2.1 4.1 93 0.4 WSW 9 9 5 5 1025.6 1026.2 0.2
25/07:30am 4.1 2.6 3.1 93 0.4 CALM 0 0 0 0 1025.6 - 0.2
25/07:26am 3.9 2.4 2.9 93 0.4 CALM 0 0 0 0 1025.6 - 0.2
25/07:11am 3.6 0.9 2.6 93 0.4 NE 6 7 3 4 1025.5 - 0.2
25/07:00am 3.1 0.3 2.1 93 0.4 NE 6 7 3 4 1025.5 1026.1 0.2
25/06:30am 3.4 1.8 2.4 93 0.4 CALM 0 0 0 0 1025.3 - 0.2
25/06:00am 4.0 2.6 3.3 95 0.3 CALM 0 0 0 0 1025.0 1025.5 0.2
25/05:30am 4.2 2.8 3.5 95 0.3 CALM 0 0 0 0 1024.8 - 0.2
25/05:00am 4.5 3.1 3.8 95 0.3 CALM 0 0 0 0 1024.5 1025.0 0.2
25/04:30am 4.7 2.2 4.0 95 0.3 WSW 6 7 3 4 1024.5 - 0.0
25/04:00am 4.9 2.5 4.2 95 0.3 WSW 6 7 3 4 1024.6 1025.1 0.0
25/03:30am 4.4 1.9 3.5 94 0.4 WSW 6 13 3 7 1024.6 - 0.0
25/03:27am 4.5 2.7 3.5 93 0.4 WSW 2 7 1 4 1024.6 - 0.0
25/03:05am 5.1 3.8 4.2 94 0.4 CALM 0 0 0 0 1024.7 - 0.0
25/03:00am 5.4 4.2 4.5 94 0.4 CALM 0 0 0 0 1024.7 1025.2 0.0
25/02:50am 5.0 3.7 4.0 93 0.4 CALM 0 0 0 0 1024.9 - 0.0
25/02:30am 5.6 4.4 4.6 93 0.4 CALM 0 0 0 0 1025.1 - 0.0
25/02:14am 6.2 5.1 5.3 94 0.4 CALM 0 0 0 0 1025.2 - 0.0
25/02:00am 6.7 4.4 5.8 94 0.4 W 7 9 4 5 1025.5 1026.1 0.0
25/01:43am 6.9 4.2 5.8 93 0.5 WSW 9 11 5 6 1025.8 - 0.0
25/01:30am 8.0 6.0 7.1 94 0.4 WSW 7 9 4 5 1026.0 - 0.0
25/01:14am 8.2 5.8 7.1 93 0.5 NNW 9 11 5 6 1026.1 - 0.0
25/01:02am 8.6 6.3 7.5 93 0.5 NNW 9 11 5 6 1026.1 - 0.0
25/01:00am 8.6 6.3 7.5 93 0.5 NNW 9 11 5 6 1026.1 1026.6 0.0
25/12:30am 8.5 6.8 7.4 93 0.5 NE 6 7 3 4 1026.4 - 0.0
25/12:00am 8.9 6.7 8.0 94 0.4 NE 9 11 5 6 1026.5 1027.1 0.0
 
Date/Time
EST
Temp
°C
App
Temp
°C
Dew
Point
Rel
Hum
%
Delta-T
°C
Wind Press
QNH
hPa
Press
MSL
hPa
Rain
since 9 am
mm
Dir
 
Spd
km/h
Gust
km/h
Spd
kts
Gust
kts
24/11:52pm 8.9 6.7 8.0 94 0.4 NNE 9 11 5 6 1026.5 - 0.0
24/11:30pm 9.0 5.7 7.9 93 0.5 N 15 19 8 10 1026.7 - 0.0
24/11:00pm 9.1 7.8 7.7 91 0.7 WSW 4 6 2 3 1026.8 1027.4 0.0
24/10:30pm 9.2 5.5 8.1 93 0.6 NE 17 22 9 12 1026.5 - 0.0
24/10:00pm 9.5 7.8 8.3 92 0.6 NE 7 13 4 7 1027.0 1027.6 0.0
24/09:32pm 10.0 8.0 8.6 91 0.7 NNE 9 13 5 7 1027.4 - 0.0
24/09:30pm 10.1 8.2 8.9 92 0.6 NNE 9 13 5 7 1027.4 - 0.0
24/09:21pm 10.1 8.2 9.0 93 0.6 NE 9 13 5 7 1027.4 - 0.0
24/09:07pm 10.0 7.7 8.9 93 0.6 NNE 11 15 6 8 1027.4 - 0.0
24/09:00pm 10.1 7.8 9.0 93 0.6 NNE 11 15 6 8 1027.4 1027.9 0.0
24/08:53pm 10.1 7.9 9.2 94 0.5 NNE 11 15 6 8 1027.2 - 0.0
24/08:47pm 10.1 7.5 9.2 94 0.5 NE 13 17 7 9 1027.4 - 0.0

Other Formats:

Comma delimited format used in spreadsheet applications
http://www.bom.gov.au/fwo/IDN60801/IDN60801.94746.axf

JavaScript Object Notation format (JSON) in row-major order
http://www.bom.gov.au/fwo/IDN60801/IDN60801.94746.json